sensor_id;sensor_type;location;lat;lon;timestamp;pressure;altitude;pressure_sealevel;temperature;humidity
68193;BME280;55012;47.562;18.414;2023-06-19T00:01:10;98848.28;;;18.73;100.00
68193;BME280;55012;47.562;18.414;2023-06-19T00:03:36;98836.97;;;18.68;100.00
68193;BME280;55012;47.562;18.414;2023-06-19T00:06:02;98836.97;;;18.68;100.00
68193;BME280;55012;47.562;18.414;2023-06-19T00:08:27;98845.72;;;18.56;100.00
68193;BME280;55012;47.562;18.414;2023-06-19T00:10:54;98838.75;;;18.47;100.00
68193;BME280;55012;47.562;18.414;2023-06-19T00:13:19;98834.84;;;18.45;100.00
68193;BME280;55012;47.562;18.414;2023-06-19T00:15:45;98848.19;;;18.43;100.00
68193;BME280;55012;47.562;18.414;2023-06-19T00:18:10;98844.25;;;18.44;100.00
68193;BME280;55012;47.562;18.414;2023-06-19T00:20:36;98855.19;;;18.47;100.00
68193;BME280;55012;47.562;18.414;2023-06-19T00:23:01;98851.63;;;18.50;100.00
68193;BME280;55012;47.562;18.414;2023-06-19T00:25:27;98858.22;;;18.57;100.00
68193;BME280;55012;47.562;18.414;2023-06-19T00:27:52;98847.97;;;18.61;100.00
68193;BME280;55012;47.562;18.414;2023-06-19T00:30:18;98859.69;;;18.65;100.00
68193;BME280;55012;47.562;18.414;2023-06-19T00:32:43;98860.88;;;18.64;100.00
68193;BME280;55012;47.562;18.414;2023-06-19T00:35:15;98854.59;;;18.67;100.00
68193;BME280;55012;47.562;18.414;2023-06-19T00:37:43;98854.22;;;18.65;100.00
68193;BME280;55012;47.562;18.414;2023-06-19T00:40:29;98862.47;;;18.61;100.00
68193;BME280;55012;47.562;18.414;2023-06-19T00:42:55;98865.66;;;18.56;100.00
68193;BME280;55012;47.562;18.414;2023-06-19T00:45:21;98863.72;;;18.53;100.00
68193;BME280;55012;47.562;18.414;2023-06-19T00:47:46;98852.03;;;18.49;100.00
68193;BME280;55012;47.562;18.414;2023-06-19T00:50:12;98841.19;;;18.38;100.00
68193;BME280;55012;47.562;18.414;2023-06-19T00:52:38;98836.56;;;18.28;100.00
68193;BME280;55012;47.562;18.414;2023-06-19T00:55:05;98823.38;;;18.19;100.00
68193;BME280;55012;47.562;18.414;2023-06-19T00:57:32;98802.34;;;18.09;100.00
68193;BME280;55012;47.562;18.414;2023-06-19T00:59:58;98797.34;;;18.01;100.00
68193;BME280;55012;47.562;18.414;2023-06-19T01:02:25;98747.66;;;18.06;100.00
68193;BME280;55012;47.562;18.414;2023-06-19T01:04:50;98723.03;;;18.06;100.00
68193;BME280;55012;47.562;18.414;2023-06-19T01:07:24;98725.47;;;17.96;100.00
68193;BME280;55012;47.562;18.414;2023-06-19T01:10:02;98725.88;;;17.91;100.00
68193;BME280;55012;47.562;18.414;2023-06-19T01:12:40;98723.19;;;17.88;100.00
68193;BME280;55012;47.562;18.414;2023-06-19T01:15:08;98729.16;;;17.79;100.00
68193;BME280;55012;47.562;18.414;2023-06-19T01:17:35;98735.41;;;17.76;100.00
68193;BME280;55012;47.562;18.414;2023-06-19T01:20:01;98738.16;;;17.76;100.00
68193;BME280;55012;47.562;18.414;2023-06-19T01:22:32;98742.81;;;17.79;100.00
68193;BME280;55012;47.562;18.414;2023-06-19T01:24:57;98745.47;;;17.86;100.00
68193;BME280;55012;47.562;18.414;2023-06-19T01:27:24;98751.72;;;17.90;100.00
68193;BME280;55012;47.562;18.414;2023-06-19T01:29:59;98752.47;;;17.91;100.00
68193;BME280;55012;47.562;18.414;2023-06-19T01:35:08;98756.41;;;17.90;100.00
68193;BME280;55012;47.562;18.414;2023-06-19T01:37:36;98760.75;;;17.87;100.00
68193;BME280;55012;47.562;18.414;2023-06-19T01:40:04;98752.53;;;17.84;100.00
68193;BME280;55012;47.562;18.414;2023-06-19T01:42:32;98749.88;;;17.77;100.00
68193;BME280;55012;47.562;18.414;2023-06-19T01:44:59;98748.31;;;17.76;100.00
68193;BME280;55012;47.562;18.414;2023-06-19T01:47:25;98736.97;;;17.77;100.00
68193;BME280;55012;47.562;18.414;2023-06-19T01:49:51;98730.00;;;17.73;100.00
68193;BME280;55012;47.562;18.414;2023-06-19T01:52:16;98722.91;;;17.75;100.00
68193;BME280;55012;47.562;18.414;2023-06-19T01:54:41;98723.31;;;17.74;100.00
68193;BME280;55012;47.562;18.414;2023-06-19T01:57:07;98721.38;;;17.71;100.00
68193;BME280;55012;47.562;18.414;2023-06-19T01:59:33;98724.13;;;17.71;100.00
68193;BME280;55012;47.562;18.414;2023-06-19T02:01:58;98728.41;;;17.68;100.00
68193;BME280;55012;47.562;18.414;2023-06-19T02:04:24;98726.47;;;17.68;100.00
68193;BME280;55012;47.562;18.414;2023-06-19T02:06:49;98728.84;;;17.66;100.00
68193;BME280;55012;47.562;18.414;2023-06-19T02:09:15;98733.16;;;17.64;100.00
68193;BME280;55012;47.562;18.414;2023-06-19T02:11:41;98719.94;;;17.55;100.00
68193;BME280;55012;47.562;18.414;2023-06-19T02:14:06;98739.53;;;17.50;100.00
68193;BME280;55012;47.562;18.414;2023-06-19T02:16:32;98727.81;;;17.50;100.00
68193;BME280;55012;47.562;18.414;2023-06-19T02:18:57;98728.22;;;17.45;100.00
68193;BME280;55012;47.562;18.414;2023-06-19T02:21:23;98731.41;;;17.39;100.00
68193;BME280;55012;47.562;18.414;2023-06-19T02:23:48;98731.81;;;17.38;100.00
68193;BME280;55012;47.562;18.414;2023-06-19T02:26:15;98718.88;;;17.42;100.00
68193;BME280;55012;47.562;18.414;2023-06-19T02:28:40;98718.06;;;17.45;100.00
68193;BME280;55012;47.562;18.414;2023-06-19T02:31:06;98718.84;;;17.46;100.00
68193;BME280;55012;47.562;18.414;2023-06-19T02:33:31;98723.56;;;17.41;100.00
68193;BME280;55012;47.562;18.414;2023-06-19T02:35:57;98721.25;;;17.40;100.00
68193;BME280;55012;47.562;18.414;2023-06-19T02:38:25;98718.50;;;17.40;100.00
68193;BME280;55012;47.562;18.414;2023-06-19T02:40:50;98709.13;;;17.41;100.00
68193;BME280;55012;47.562;18.414;2023-06-19T02:43:16;98705.97;;;17.42;100.00
68193;BME280;55012;47.562;18.414;2023-06-19T02:45:41;98711.09;;;17.40;100.00
68193;BME280;55012;47.562;18.414;2023-06-19T02:48:07;98717.69;;;17.43;100.00
68193;BME280;55012;47.562;18.414;2023-06-19T02:50:32;98708.28;;;17.48;100.00
68193;BME280;55012;47.562;18.414;2023-06-19T02:52:58;98717.69;;;17.47;100.00
68193;BME280;55012;47.562;18.414;2023-06-19T02:55:23;98707.09;;;17.49;100.00
68193;BME280;55012;47.562;18.414;2023-06-19T02:57:49;98704.38;;;17.49;100.00
68193;BME280;55012;47.562;18.414;2023-06-19T03:00:14;98699.31;;;17.47;100.00
68193;BME280;55012;47.562;18.414;2023-06-19T03:02:40;98705.56;;;17.48;100.00
68193;BME280;55012;47.562;18.414;2023-06-19T03:05:09;98713.78;;;17.44;100.00
68193;BME280;55012;47.562;18.414;2023-06-19T03:07:35;98714.97;;;17.43;100.00
68193;BME280;55012;47.562;18.414;2023-06-19T03:10:00;98706.03;;;17.39;100.00
68193;BME280;55012;47.562;18.414;2023-06-19T03:12:25;98703.28;;;17.39;100.00
68193;BME280;55012;47.562;18.414;2023-06-19T03:14:51;98700.94;;;17.37;100.00
68193;BME280;55012;47.562;18.414;2023-06-19T03:17:16;98705.25;;;17.35;100.00
68193;BME280;55012;47.562;18.414;2023-06-19T03:19:42;98699.38;;;17.36;100.00
68193;BME280;55012;47.562;18.414;2023-06-19T03:22:07;98706.81;;;17.39;100.00
68193;BME280;55012;47.562;18.414;2023-06-19T03:24:33;98675.78;;;17.57;100.00
68193;BME280;55012;47.562;18.414;2023-06-19T03:26:58;98561.69;;;18.76;100.00
68193;BME280;55012;47.562;18.414;2023-06-19T03:29:24;98592.44;;;19.77;100.00
68193;BME280;55012;47.562;18.414;2023-06-19T03:31:49;98669.88;;;20.48;100.00
68193;BME280;55012;47.562;18.414;2023-06-19T03:34:15;98732.28;;;20.87;100.00
68193;BME280;55012;47.562;18.414;2023-06-19T03:36:41;98795.47;;;21.07;100.00
68193;BME280;55012;47.562;18.414;2023-06-19T03:39:07;98660.28;;;21.25;100.00
68193;BME280;55012;47.562;18.414;2023-06-19T03:41:32;98694.66;;;21.17;100.00
68193;BME280;55012;47.562;18.414;2023-06-19T03:43:57;98711.91;;;21.01;100.00
68193;BME280;55012;47.562;18.414;2023-06-19T03:46:23;98662.50;;;20.97;100.00
68193;BME280;55012;47.562;18.414;2023-06-19T03:48:48;98609.16;;;20.95;100.00
68193;BME280;55012;47.562;18.414;2023-06-19T03:51:14;98622.03;;;20.98;100.00
68193;BME280;55012;47.562;18.414;2023-06-19T03:53:39;98667.91;;;21.01;100.00
68193;BME280;55012;47.562;18.414;2023-06-19T03:56:05;98700.91;;;21.01;100.00
68193;BME280;55012;47.562;18.414;2023-06-19T03:58:31;98708.81;;;20.99;100.00
68193;BME280;55012;47.562;18.414;2023-06-19T04:00:57;98708.81;;;20.99;100.00
68193;BME280;55012;47.562;18.414;2023-06-19T04:03:22;98719.31;;;21.04;100.00
68193;BME280;55012;47.562;18.414;2023-06-19T04:05:48;98719.22;;;21.08;100.00
68193;BME280;55012;47.562;18.414;2023-06-19T04:08:13;98714.16;;;21.06;100.00
68193;BME280;55012;47.562;18.414;2023-06-19T04:10:39;98700.50;;;21.02;100.00
68193;BME280;55012;47.562;18.414;2023-06-19T04:13:04;98708.56;;;21.10;100.00
68193;BME280;55012;47.562;18.414;2023-06-19T04:15:32;98699.53;;;21.09;100.00
68193;BME280;55012;47.562;18.414;2023-06-19T04:17:58;98707.38;;;21.11;100.00
68193;BME280;55012;47.562;18.414;2023-06-19T04:20:26;98709.38;;;21.10;100.00
68193;BME280;55012;47.562;18.414;2023-06-19T04:22:51;98710.13;;;21.11;100.00
68193;BME280;55012;47.562;18.414;2023-06-19T04:25:16;98719.66;;;21.06;100.00
68193;BME280;55012;47.562;18.414;2023-06-19T04:27:43;98720.09;;;21.04;100.00
68193;BME280;55012;47.562;18.414;2023-06-19T04:30:11;98723.19;;;21.07;100.00
68193;BME280;55012;47.562;18.414;2023-06-19T04:32:37;98726.97;;;21.13;100.00
68193;BME280;55012;47.562;18.414;2023-06-19T04:35:06;98724.13;;;21.16;100.00
68193;BME280;55012;47.562;18.414;2023-06-19T04:37:35;98724.47;;;21.18;100.00
68193;BME280;55012;47.562;18.414;2023-06-19T04:40:01;98723.69;;;21.18;100.00
68193;BME280;55012;47.562;18.414;2023-06-19T04:42:28;98731.13;;;21.21;100.00
68193;BME280;55012;47.562;18.414;2023-06-19T04:44:53;98722.53;;;21.19;100.00
68193;BME280;55012;47.562;18.414;2023-06-19T04:47:22;98722.88;;;21.21;100.00
68193;BME280;55012;47.562;18.414;2023-06-19T04:49:48;98727.06;;;21.25;100.00
68193;BME280;55012;47.562;18.414;2023-06-19T04:52:13;98725.53;;;21.24;100.00
68193;BME280;55012;47.562;18.414;2023-06-19T04:54:39;98723.09;;;21.26;100.00
68193;BME280;55012;47.562;18.414;2023-06-19T04:57:05;98718.03;;;21.25;100.00
68193;BME280;55012;47.562;18.414;2023-06-19T04:59:31;98728.56;;;21.30;100.00
68193;BME280;55012;47.562;18.414;2023-06-19T05:01:57;98724.19;;;21.33;100.00
68193;BME280;55012;47.562;18.414;2023-06-19T05:04:23;98720.50;;;21.39;100.00
68193;BME280;55012;47.562;18.414;2023-06-19T05:06:49;98724.28;;;21.45;100.00
68193;BME280;55012;47.562;18.414;2023-06-19T05:09:15;98722.97;;;21.50;100.00
68193;BME280;55012;47.562;18.414;2023-06-19T05:11:40;98731.94;;;21.54;100.00
68193;BME280;55012;47.562;18.414;2023-06-19T05:14:06;98732.16;;;21.59;100.00
68193;BME280;55012;47.562;18.414;2023-06-19T05:16:33;98728.91;;;21.65;100.00
68193;BME280;55012;47.562;18.414;2023-06-19T05:18:58;98733.47;;;21.71;100.00
68193;BME280;55012;47.562;18.414;2023-06-19T05:21:24;98738.97;;;21.71;100.00
68193;BME280;55012;47.562;18.414;2023-06-19T05:23:49;98738.19;;;21.71;100.00
68193;BME280;55012;47.562;18.414;2023-06-19T05:26:19;98731.16;;;21.70;100.00
68193;BME280;55012;47.562;18.414;2023-06-19T05:28:45;98731.91;;;21.70;100.00
68193;BME280;55012;47.562;18.414;2023-06-19T05:31:11;98735.44;;;21.71;100.00
68193;BME280;55012;47.562;18.414;2023-06-19T05:33:37;98736.22;;;21.71;100.00
68193;BME280;55012;47.562;18.414;2023-06-19T05:36:02;98733.81;;;21.73;100.00
68193;BME280;55012;47.562;18.414;2023-06-19T05:38:28;98733.72;;;21.77;100.00
68193;BME280;55012;47.562;18.414;2023-06-19T05:40:56;98733.28;;;21.78;100.00
68193;BME280;55012;47.562;18.414;2023-06-19T05:43:21;98731.53;;;21.84;100.00
68193;BME280;55012;47.562;18.414;2023-06-19T05:45:47;98734.53;;;21.90;100.00
68193;BME280;55012;47.562;18.414;2023-06-19T05:48:13;98733.47;;;22.00;100.00
68193;BME280;55012;47.562;18.414;2023-06-19T05:50:38;98748.56;;;22.12;100.00
68193;BME280;55012;47.562;18.414;2023-06-19T05:53:05;98759.63;;;22.25;100.00
68193;BME280;55012;47.562;18.414;2023-06-19T05:55:30;98759.44;;;22.32;100.00
68193;BME280;55012;47.562;18.414;2023-06-19T05:57:56;98768.03;;;22.34;100.00
68193;BME280;55012;47.562;18.414;2023-06-19T06:00:22;98776.56;;;22.39;100.00
68193;BME280;55012;47.562;18.414;2023-06-19T06:02:48;98775.59;;;22.46;100.00
68193;BME280;55012;47.562;18.414;2023-06-19T06:05:13;98767.91;;;22.54;100.00
68193;BME280;55012;47.562;18.414;2023-06-19T06:07:39;98770.22;;;22.55;100.00
68193;BME280;55012;47.562;18.414;2023-06-19T06:10:05;98761.81;;;22.59;100.00
68193;BME280;55012;47.562;18.414;2023-06-19T06:12:34;98759.75;;;22.63;100.00
68193;BME280;55012;47.562;18.414;2023-06-19T06:15:01;98761.28;;;22.64;100.00
68193;BME280;55012;47.562;18.414;2023-06-19T06:17:27;98754.56;;;22.65;100.00
68193;BME280;55012;47.562;18.414;2023-06-19T06:19:52;98751.81;;;22.65;100.00
68193;BME280;55012;47.562;18.414;2023-06-19T06:22:18;98757.66;;;22.67;100.00
68193;BME280;55012;47.562;18.414;2023-06-19T06:24:44;98747.75;;;22.69;100.00
68193;BME280;55012;47.562;18.414;2023-06-19T06:27:12;98755.06;;;22.76;100.00
68193;BME280;55012;47.562;18.414;2023-06-19T06:29:37;98765.84;;;22.83;100.00
68193;BME280;55012;47.562;18.414;2023-06-19T06:32:04;98759.06;;;22.88;100.00
68193;BME280;55012;47.562;18.414;2023-06-19T06:34:33;98757.84;;;22.89;100.00
68193;BME280;55012;47.562;18.414;2023-06-19T06:37:02;98753.22;;;22.86;100.00
68193;BME280;55012;47.562;18.414;2023-06-19T06:39:28;98759.16;;;22.84;100.00
68193;BME280;55012;47.562;18.414;2023-06-19T06:41:53;98755.59;;;22.84;100.00
68193;BME280;55012;47.562;18.414;2023-06-19T06:44:19;98743.72;;;22.87;100.00
68193;BME280;55012;47.562;18.414;2023-06-19T06:46:44;98755.53;;;22.87;100.00
68193;BME280;55012;47.562;18.414;2023-06-19T06:49:11;98760.16;;;22.90;100.00
68193;BME280;55012;47.562;18.414;2023-06-19T06:51:37;98768.66;;;22.96;100.00
68193;BME280;55012;47.562;18.414;2023-06-19T06:54:02;98777.59;;;23.00;100.00
68193;BME280;55012;47.562;18.414;2023-06-19T06:56:28;98781.25;;;22.97;100.00
68193;BME280;55012;47.562;18.414;2023-06-19T06:58:53;98795.03;;;22.97;100.00
68193;BME280;55012;47.562;18.414;2023-06-19T07:01:19;98812.03;;;22.95;100.00
68193;BME280;55012;47.562;18.414;2023-06-19T07:03:44;98811.34;;;22.91;100.00
68193;BME280;55012;47.562;18.414;2023-06-19T07:06:10;98806.28;;;22.90;100.00
68193;BME280;55012;47.562;18.414;2023-06-19T07:08:35;98820.50;;;22.88;100.00
68193;BME280;55012;47.562;18.414;2023-06-19T07:11:00;98818.19;;;22.87;100.00
68193;BME280;55012;47.562;18.414;2023-06-19T07:13:26;98813.91;;;22.86;100.00
68193;BME280;55012;47.562;18.414;2023-06-19T07:15:52;98807.41;;;22.92;100.00
68193;BME280;55012;47.562;18.414;2023-06-19T07:18:17;98801.78;;;22.96;100.00
68193;BME280;55012;47.562;18.414;2023-06-19T07:20:43;98804.78;;;23.02;100.00
68193;BME280;55012;47.562;18.414;2023-06-19T07:23:09;98801.00;;;23.08;100.00
68193;BME280;55012;47.562;18.414;2023-06-19T07:25:35;98812.97;;;23.18;100.00
68193;BME280;55012;47.562;18.414;2023-06-19T07:28:01;98823.53;;;23.32;100.00
68193;BME280;55012;47.562;18.414;2023-06-19T07:30:27;98826.56;;;23.50;100.00
68193;BME280;55012;47.562;18.414;2023-06-19T07:32:52;98838.38;;;23.64;100.00
68193;BME280;55012;47.562;18.414;2023-06-19T07:35:18;98844.00;;;23.73;100.00
68193;BME280;55012;47.562;18.414;2023-06-19T07:37:44;98841.56;;;23.88;100.00
68193;BME280;55012;47.562;18.414;2023-06-19T07:40:11;98856.25;;;23.97;100.00
68193;BME280;55012;47.562;18.414;2023-06-19T07:42:37;98863.22;;;24.02;100.00
68193;BME280;55012;47.562;18.414;2023-06-19T07:45:02;98867.06;;;24.04;100.00
68193;BME280;55012;47.562;18.414;2023-06-19T07:47:28;98858.66;;;24.08;100.00
68193;BME280;55012;47.562;18.414;2023-06-19T07:49:53;98871.59;;;24.11;100.00
68193;BME280;55012;47.562;18.414;2023-06-19T07:52:19;98875.75;;;24.28;100.00
68193;BME280;55012;47.562;18.414;2023-06-19T07:54:57;98887.25;;;24.40;100.00
68193;BME280;55012;47.562;18.414;2023-06-19T07:57:24;98891.53;;;24.41;100.00
68193;BME280;55012;47.562;18.414;2023-06-19T07:59:51;98898.06;;;24.47;100.00
68193;BME280;55012;47.562;18.414;2023-06-19T08:02:17;98890.44;;;24.51;100.00
68193;BME280;55012;47.562;18.414;2023-06-19T08:04:43;98897.97;;;24.50;100.00
68193;BME280;55012;47.562;18.414;2023-06-19T08:07:09;98893.44;;;24.44;100.00
68193;BME280;55012;47.562;18.414;2023-06-19T08:09:34;98898.75;;;24.38;100.00
68193;BME280;55012;47.562;18.414;2023-06-19T08:12:01;98898.06;;;24.47;100.00
68193;BME280;55012;47.562;18.414;2023-06-19T08:14:29;98896.50;;;24.58;100.00
68193;BME280;55012;47.562;18.414;2023-06-19T08:16:54;98894.56;;;24.68;100.00
68193;BME280;55012;47.562;18.414;2023-06-19T08:19:20;98901.09;;;24.74;100.00
68193;BME280;55012;47.562;18.414;2023-06-19T08:21:46;98908.69;;;24.83;100.00
68193;BME280;55012;47.562;18.414;2023-06-19T08:24:11;98913.88;;;24.81;100.00
68193;BME280;55012;47.562;18.414;2023-06-19T08:26:37;98908.09;;;24.88;100.00
68193;BME280;55012;47.562;18.414;2023-06-19T08:29:02;98905.16;;;25.04;100.00
68193;BME280;55012;47.562;18.414;2023-06-19T08:31:28;98914.44;;;25.10;100.00
68193;BME280;55012;47.562;18.414;2023-06-19T08:33:54;98907.38;;;24.97;100.00
68193;BME280;55012;47.562;18.414;2023-06-19T08:36:20;98907.28;;;25.00;100.00
68193;BME280;55012;47.562;18.414;2023-06-19T08:38:45;98906.31;;;24.94;100.00
68193;BME280;55012;47.562;18.414;2023-06-19T08:41:17;98894.88;;;24.70;100.00
68193;BME280;55012;47.562;18.414;2023-06-19T08:43:44;98885.09;;;24.56;100.00
68193;BME280;55012;47.562;18.414;2023-06-19T08:46:13;98878.91;;;24.52;100.00
68193;BME280;55012;47.562;18.414;2023-06-19T08:48:39;98880.47;;;24.53;100.00
68193;BME280;55012;47.562;18.414;2023-06-19T08:51:05;98883.00;;;24.48;100.00
68193;BME280;55012;47.562;18.414;2023-06-19T08:53:35;98881.78;;;24.49;100.00
68193;BME280;55012;47.562;18.414;2023-06-19T08:56:02;98872.63;;;24.52;100.00
68193;BME280;55012;47.562;18.414;2023-06-19T08:58:27;98874.38;;;24.58;100.00
68193;BME280;55012;47.562;18.414;2023-06-19T09:00:53;98880.09;;;24.64;100.00
68193;BME280;55012;47.562;18.414;2023-06-19T09:03:22;98879.75;;;24.62;100.00
68193;BME280;55012;47.562;18.414;2023-06-19T09:05:48;98869.47;;;24.62;100.00
68193;BME280;55012;47.562;18.414;2023-06-19T09:08:17;98865.63;;;24.60;100.00
68193;BME280;55012;47.562;18.414;2023-06-19T09:10:55;98860.19;;;24.56;100.00
68193;BME280;55012;47.562;18.414;2023-06-19T09:13:20;98856.34;;;24.54;100.00
68193;BME280;55012;47.562;18.414;2023-06-19T09:15:46;98857.88;;;24.55;100.00
68193;BME280;55012;47.562;18.414;2023-06-19T09:18:11;98858.97;;;24.57;100.00
68193;BME280;55012;47.562;18.414;2023-06-19T09:20:40;98856.72;;;24.65;100.00
68193;BME280;55012;47.562;18.414;2023-06-19T09:23:09;98867.88;;;24.74;100.00
68193;BME280;55012;47.562;18.414;2023-06-19T09:25:45;98871.91;;;24.82;100.00
68193;BME280;55012;47.562;18.414;2023-06-19T09:28:26;98854.06;;;24.74;100.00
68193;BME280;55012;47.562;18.414;2023-06-19T09:31:00;98845.63;;;24.78;100.00
68193;BME280;55012;47.562;18.414;2023-06-19T09:33:30;98853.84;;;24.90;100.00
68193;BME280;55012;47.562;18.414;2023-06-19T09:35:57;98865.31;;;25.02;100.00
68193;BME280;55012;47.562;18.414;2023-06-19T09:38:28;98879.22;;;25.11;100.00
68193;BME280;55012;47.562;18.414;2023-06-19T09:40:55;98894.19;;;25.23;100.00
68193;BME280;55012;47.562;18.414;2023-06-19T09:43:30;98885.00;;;25.26;100.00
68193;BME280;55012;47.562;18.414;2023-06-19T09:45:58;98878.06;;;25.21;100.00
68193;BME280;55012;47.562;18.414;2023-06-19T09:48:28;98869.91;;;25.17;100.00
68193;BME280;55012;47.562;18.414;2023-06-19T09:51:00;98875.09;;;25.15;100.00
68193;BME280;55012;47.562;18.414;2023-06-19T09:53:26;98868.63;;;25.09;100.00
68193;BME280;55012;47.562;18.414;2023-06-19T09:55:51;98883.06;;;25.13;100.00
68193;BME280;55012;47.562;18.414;2023-06-19T09:58:20;98873.59;;;25.24;100.00
68193;BME280;55012;47.562;18.414;2023-06-19T10:00:47;98884.63;;;25.14;100.00
68193;BME280;55012;47.562;18.414;2023-06-19T10:03:16;98897.38;;;25.12;100.00
68193;BME280;55012;47.562;18.414;2023-06-19T10:05:42;98894.16;;;25.13;100.00
68193;BME280;55012;47.562;18.414;2023-06-19T10:08:08;98885.13;;;25.00;100.00
68193;BME280;55012;47.562;18.414;2023-06-19T10:10:34;98884.38;;;25.00;100.00
68193;BME280;55012;47.562;18.414;2023-06-19T10:13:12;98888.31;;;25.11;100.00
68193;BME280;55012;47.562;18.414;2023-06-19T10:15:41;98886.81;;;25.19;100.00
68193;BME280;55012;47.562;18.414;2023-06-19T10:18:14;98887.44;;;25.24;100.00
68193;BME280;55012;47.562;18.414;2023-06-19T10:20:44;98889.16;;;25.30;100.00
68193;BME280;55012;47.562;18.414;2023-06-19T10:23:12;98887.91;;;25.22;100.00
68193;BME280;55012;47.562;18.414;2023-06-19T10:25:42;98899.31;;;25.24;100.00
68193;BME280;55012;47.562;18.414;2023-06-19T10:28:30;98899.78;;;25.32;100.00
68193;BME280;55012;47.562;18.414;2023-06-19T10:33:30;98908.25;;;25.28;100.00
68193;BME280;55012;47.562;18.414;2023-06-19T10:35:58;98908.81;;;25.23;100.00
68193;BME280;55012;47.562;18.414;2023-06-19T10:38:25;98922.78;;;25.41;100.00
68193;BME280;55012;47.562;18.414;2023-06-19T10:40:50;98925.56;;;25.41;100.00
68193;BME280;55012;47.562;18.414;2023-06-19T10:43:23;98922.34;;;25.43;100.00
68193;BME280;55012;47.562;18.414;2023-06-19T10:45:53;98923.09;;;25.43;100.00
68193;BME280;55012;47.562;18.414;2023-06-19T10:48:27;98918.97;;;25.48;100.00
68193;BME280;55012;47.562;18.414;2023-06-19T10:50:53;98919.47;;;25.56;100.00
68193;BME280;55012;47.562;18.414;2023-06-19T10:53:29;98912.66;;;25.47;100.00
68193;BME280;55012;47.562;18.414;2023-06-19T10:55:56;98920.88;;;25.60;100.00
68193;BME280;55012;47.562;18.414;2023-06-19T10:58:23;98921.13;;;25.75;100.00
68193;BME280;55012;47.562;18.414;2023-06-19T11:00:48;98918.41;;;25.84;100.00
68193;BME280;55012;47.562;18.414;2023-06-19T11:03:14;98929.69;;;25.99;100.00
68193;BME280;55012;47.562;18.414;2023-06-19T11:05:43;98929.75;;;26.17;100.00
68193;BME280;55012;47.562;18.414;2023-06-19T11:08:10;98933.91;;;26.22;100.00
68193;BME280;55012;47.562;18.414;2023-06-19T11:10:35;98931.88;;;26.13;100.00
68193;BME280;55012;47.562;18.414;2023-06-19T11:13:01;98921.66;;;25.92;100.00
68193;BME280;55012;47.562;18.414;2023-06-19T11:17:56;98917.63;;;25.84;100.00
68193;BME280;55012;47.562;18.414;2023-06-19T11:20:22;98921.06;;;26.06;100.00
68193;BME280;55012;47.562;18.414;2023-06-19T11:22:54;98920.31;;;26.15;100.00
68193;BME280;55012;47.562;18.414;2023-06-19T11:25:20;98931.00;;;26.25;100.00
68193;BME280;55012;47.562;18.414;2023-06-19T11:27:46;98931.91;;;26.22;100.00
68193;BME280;55012;47.562;18.414;2023-06-19T11:30:17;98924.69;;;26.25;100.00
68193;BME280;55012;47.562;18.414;2023-06-19T11:32:46;98936.50;;;26.56;100.00
68193;BME280;55012;47.562;18.414;2023-06-19T11:35:15;98975.41;;;27.90;100.00
68193;BME280;55012;47.562;18.414;2023-06-19T11:37:42;98975.81;;;28.40;100.00
68193;BME280;55012;47.562;18.414;2023-06-19T11:40:09;98994.72;;;28.60;100.00
68193;BME280;55012;47.562;18.414;2023-06-19T11:42:52;98991.94;;;28.60;100.00
68193;BME280;55012;47.562;18.414;2023-06-19T11:45:18;99009.56;;;28.33;100.00
68193;BME280;55012;47.562;18.414;2023-06-19T11:47:45;98996.78;;;28.17;100.00
68193;BME280;55012;47.562;18.414;2023-06-19T11:50:11;98971.78;;;27.57;100.00
68193;BME280;55012;47.562;18.414;2023-06-19T11:52:37;98945.28;;;27.19;100.00
68193;BME280;55012;47.562;18.414;2023-06-19T11:55:03;98933.72;;;27.02;100.00
68193;BME280;55012;47.562;18.414;2023-06-19T11:57:28;98941.59;;;27.04;100.00
68193;BME280;55012;47.562;18.414;2023-06-19T11:59:54;98926.59;;;27.29;100.00
68193;BME280;55012;47.562;18.414;2023-06-19T12:02:20;98942.22;;;27.08;100.00
68193;BME280;55012;47.562;18.414;2023-06-19T12:04:46;98934.31;;;26.97;100.00
68193;BME280;55012;47.562;18.414;2023-06-19T12:07:11;98920.91;;;27.14;100.00
68193;BME280;55012;47.562;18.414;2023-06-19T12:09:37;98936.66;;;27.17;100.00
68193;BME280;55012;47.562;18.414;2023-06-19T12:12:05;98927.84;;;27.28;100.00
68193;BME280;55012;47.562;18.414;2023-06-19T12:14:30;98920.44;;;27.34;100.00
68193;BME280;55012;47.562;18.414;2023-06-19T12:16:56;98920.72;;;27.36;100.00
68193;BME280;55012;47.562;18.414;2023-06-19T12:19:21;98923.00;;;27.47;100.00
68193;BME280;55012;47.562;18.414;2023-06-19T12:21:47;98930.41;;;27.59;100.00
68193;BME280;55012;47.562;18.414;2023-06-19T12:24:12;98924.41;;;27.51;100.00
68193;BME280;55012;47.562;18.414;2023-06-19T12:26:38;98944.41;;;27.83;100.00
68193;BME280;55012;47.562;18.414;2023-06-19T12:29:06;98952.84;;;28.21;100.00
68193;BME280;55012;47.562;18.414;2023-06-19T12:31:32;98954.81;;;28.06;100.00
68193;BME280;55012;47.562;18.414;2023-06-19T12:33:59;98947.69;;;28.05;100.00
68193;BME280;55012;47.562;18.414;2023-06-19T12:36:26;98940.59;;;28.37;100.00
68193;BME280;55012;47.562;18.414;2023-06-19T12:38:53;98962.91;;;29.00;100.00
68193;BME280;55012;47.562;18.414;2023-06-19T12:41:19;98976.72;;;29.77;100.00
68193;BME280;55012;47.562;18.414;2023-06-19T12:43:45;98989.31;;;30.72;100.00
68193;BME280;55012;47.562;18.414;2023-06-19T12:46:10;99018.78;;;31.86;100.00